UTDKUTAM

Guest
Details From UTDK - KULYAB
To UTAM - MARY
Flight Number -
Tags generated
Created
Modified
Stats Distance 381 nm / 705 km
Max Altitude 34,000 ft / 10,363 m
Waypoints 8
Social Downloads 0
Likes 0
Share VATSIM

Download

Looking for another format? Having issues loading an existing format? Contact us
Advertisement - Login to hide

Notes

Basic altitude profile: - Ascent Rate: 2500ft/min - Ascent Speed: 250kts - Cruise Altitude: 35000ft - Cruise Speed: 420kts - Descent Rate: 1500ft/min - Descent Speed: 250kts Options: - Use NATs: yes - Use PACOTS: yes - Use low airways: yes - Use high airways: yes

Route

UTDK ANVAR HA GONAK B441 ATAMT T1 UTAM

ID Type Via Altitude Latitude Longitude Leg Dist Tot Dist Heading (true) Name
O UTDK APT - 0 ft / 0 m 37.98833˚ 69.80667˚ - 0 nm - KULYAB
ANVAR FIX - 32,000 ft / 9,754 m 38.00000˚ 67.85000˚ 92 nm 92 nm 271° / 270° -
HA NDB - 34,000 ft / 10,363 m 37.68333˚ 67.03333˚ 43 nm 135 nm 244° / 244° SHERABAD NDB
GONAK FIX - 34,000 ft / 10,363 m 37.71667˚ 66.61000˚ 20 nm 155 nm 276° / 276° -
ATAMT FIX B441 (AWY-HI) 32,900 ft / 10,028 m 37.81667˚ 65.21667˚ 66 nm 222 nm 276° / 275° -
RARUN FIX T1 (AWY-HI) 26,100 ft / 7,955 m 37.77500˚ 64.55000˚ 31 nm 254 nm 266° / 265° -
ARKEK FIX T1 (AWY-LO) 4,900 ft / 1,494 m 37.60000˚ 62.18333˚ 112 nm 367 nm 265° / 264° -
O UTAM APT T1 (AWY-LO) 4,900 ft / 1,494 m 37.61951˚ 61.89681˚ 13 nm 380 nm 275° / 275° MARY

Altitude Profile

Advertisement - Login to hide

Weather


0- 5 10 15 20 25 30 35+ Temperature / ° C

Clouds and Precipitation
Forecast for 2017-12-13 00:00 UTC. Updated 18 minutes ago

Ground ~20,000 ft ~40,000 ft Winds

UTDK

Details ICAO UTDK (TJU)
Name KULYAB
Region Tajikistan, Turkmenistan and Uzbekistan
Timezone Asia/Dushanbe (UTC+5.0)
Stats Elevation 2,293 ft / 699 m (AMSL)
Location 37.988334° 69.806667°
Runways 1
Magnetic Variation 4.170° E

METAR

UTDK 122330Z 00000MPS 6000 OVC026 M00/M01 Q1026 R01/09//70 RMK QFE712/0949

Decode

TAF

Not found

Departure Runways

ID Width Length Bearing (true) Bearing (mag) Surface Threshold Offset Overrun Length
01 137 ft / 42 m 10,147 ft / 3,093 m 16.46° 12.29° Asphalt 0 ft / 0 m 0 ft / 0 m
19 137 ft / 42 m 10,147 ft / 3,093 m 196.47° 192.30° Asphalt 0 ft / 0 m 0 ft / 0 m

UTAM

Details ICAO UTAM (MYP)
Name MARY
Region Tajikistan, Turkmenistan and Uzbekistan
Timezone Asia/Ashgabat (UTC+5.0)
Stats Elevation 728 ft / 222 m (AMSL)
Location 37.619514° 61.896806°
Runways 2
Magnetic Variation 4.645° E

METAR

UTAM 122300Z 11004KT 6000 SKC M05/M09 Q1032 NOSIG

Decode

TAF

Not found

Destination Runways

ID Width Length Bearing (true) Bearing (mag) Surface Threshold Offset Overrun Length
18L 147 ft / 45 m 9,126 ft / 2,782 m 178.49° 173.84° Concrete 0 ft / 0 m 0 ft / 0 m
18R 98 ft / 30 m 8,011 ft / 2,442 m 178.28° 173.63° Concrete 0 ft / 0 m 0 ft / 0 m
36L 98 ft / 30 m 8,011 ft / 2,442 m 358.28° 353.63° Concrete 0 ft / 0 m 0 ft / 0 m
36R 147 ft / 45 m 9,126 ft / 2,782 m 358.49° 353.84° Concrete 0 ft / 0 m 0 ft / 0 m